Time;durP1;ratioP1;P1;durP2;ratioP2;P2;SDS_P1;SDS_P2;PMS_P1;PMS_P2;Temp;Humidity;BMP_temperature;BMP_pressure;BME280_temperature;BME280_humidity;BME280_pressure;Samples;Min_cycle;Max_cycle;Signal;HPM_P1;HPM_P2
2021/05/13 00:02:12;;;;;;;8.48;5.20;;;10.60;99.90;;;;;;5052700;28;20021;-75
2021/05/13 00:04:38;;;;;;;8.32;4.72;;;10.40;99.90;;;;;;5052029;28;20032;-75
2021/05/13 00:07:04;;;;;;;8.68;5.05;;;10.20;99.90;;;;;;5052202;28;20135;-76
2021/05/13 00:09:31;;;;;;;9.48;4.88;;;10.30;99.90;;;;;;5054125;28;20422;-75
2021/05/13 00:11:59;;;;;;;7.72;5.03;;;10.30;99.90;;;;;;5072459;28;20024;-75
2021/05/13 00:14:25;;;;;;;8.32;5.20;;;10.50;99.90;;;;;;5072382;28;20029;-74
2021/05/13 00:16:51;;;;;;;9.15;6.18;;;10.60;99.90;;;;;;5084968;28;20063;-75
2021/05/13 00:19:17;;;;;;;8.05;5.38;;;10.70;99.90;;;;;;5083535;28;20105;-74
2021/05/13 00:21:45;;;;;;;8.57;6.70;;;10.70;99.90;;;;;;5074556;28;20020;-75
2021/05/13 00:24:13;;;;;;;7.85;6.10;;;10.70;99.90;;;;;;5072491;28;20021;-76
2021/05/13 00:26:40;;;;;;;7.50;6.38;;;10.60;99.90;;;;;;5071054;28;20068;-73
2021/05/13 00:29:07;;;;;;;11.82;6.88;;;10.50;99.90;;;;;;5078196;28;20020;-74
2021/05/13 00:31:33;;;;;;;9.63;6.55;;;10.60;99.90;;;;;;5072818;28;20121;-76
2021/05/13 00:34:00;;;;;;;12.43;6.93;;;10.60;99.90;;;;;;5071212;28;20136;-74
2021/05/13 00:36:30;;;;;;;8.55;6.90;;;10.50;99.90;;;;;;5070404;28;20608;-75
2021/05/13 00:38:56;;;;;;;8.88;6.72;;;10.50;99.90;;;;;;5071785;28;20055;-75
2021/05/13 00:41:22;;;;;;;19.13;7.03;;;10.50;99.90;;;;;;5071598;28;20028;-74
2021/05/13 00:43:49;;;;;;;10.75;5.82;;;10.50;99.90;;;;;;5071193;28;20367;-74
2021/05/13 00:46:15;;;;;;;9.60;5.30;;;10.30;99.90;;;;;;5071746;28;20052;-75
2021/05/13 00:48:43;;;;;;;5.88;4.88;;;10.20;99.90;;;;;;5057099;28;20021;-75
2021/05/13 00:51:08;;;;;;;7.30;5.15;;;10.00;99.90;;;;;;5051670;28;20112;-75
2021/05/13 00:53:34;;;;;;;7.43;5.18;;;10.00;99.90;;;;;;5051153;28;20454;-73
2021/05/13 00:56:00;;;;;;;7.95;5.25;;;10.10;99.90;;;;;;5051300;28;20112;-75
2021/05/13 00:58:29;;;;;;;7.10;5.18;;;10.10;99.90;;;;;;5051465;28;20053;-74
2021/05/13 01:03:20;;;;;;;9.48;5.97;;;10.10;99.90;;;;;;5050870;28;20017;-74
2021/05/13 01:05:46;;;;;;;9.50;6.30;;;10.20;99.90;;;;;;5051165;28;20454;-75
2021/05/13 01:08:12;;;;;;;13.02;6.38;;;10.30;99.90;;;;;;5051215;28;20028;-75
2021/05/13 01:10:39;;;;;;;10.90;6.38;;;10.20;99.90;;;;;;5050669;28;20035;-75
2021/05/13 01:13:12;;;;;;;10.77;6.35;;;10.20;99.90;;;;;;5050659;28;20122;-75
2021/05/13 01:15:41;;;;;;;12.00;6.60;;;10.20;99.90;;;;;;5051392;28;20021;-74
2021/05/13 01:20:39;;;;;;;9.20;7.03;;;10.20;99.90;;;;;;5051376;28;20537;-75
2021/05/13 01:23:08;;;;;;;13.43;6.97;;;10.20;99.90;;;;;;5050657;28;20025;-74
2021/05/13 01:25:43;;;;;;;14.20;7.50;;;10.30;99.90;;;;;;5049285;28;20017;-74
2021/05/13 01:28:09;;;;;;;12.98;8.40;;;10.30;99.90;;;;;;5050917;28;20038;-75
2021/05/13 01:30:34;;;;;;;14.52;7.78;;;10.30;99.90;;;;;;5051158;28;20031;-76
2021/05/13 01:33:00;;;;;;;12.52;8.18;;;10.10;99.90;;;;;;5048950;28;20124;-74
2021/05/13 01:35:27;;;;;;;12.60;7.80;;;10.10;99.90;;;;;;5050558;28;20067;-74
2021/05/13 01:38:07;;;;;;;17.42;9.90;;;10.00;99.90;;;;;;5049455;28;20049;-75
2021/05/13 01:40:33;;;;;;;13.52;8.70;;;10.10;99.90;;;;;;5050563;28;20136;-75
2021/05/13 01:42:59;;;;;;;12.60;9.07;;;10.00;99.90;;;;;;5050683;28;20434;-74
2021/05/13 01:45:25;;;;;;;11.73;9.02;;;10.00;99.90;;;;;;5051053;28;20031;-75
2021/05/13 01:47:51;;;;;;;12.88;9.45;;;9.90;99.90;;;;;;5058495;28;20384;-73
2021/05/13 01:50:16;;;;;;;16.73;11.10;;;9.80;99.90;;;;;;5071214;28;20028;-73
2021/05/13 01:52:42;;;;;;;13.68;10.75;;;9.80;99.90;;;;;;5070385;28;20104;-74
2021/05/13 01:55:08;;;;;;;13.55;10.55;;;9.70;99.90;;;;;;5070475;28;20028;-74
2021/05/13 01:57:34;;;;;;;18.77;10.75;;;9.70;99.90;;;;;;5070682;28;20030;-75
2021/05/13 01:59:59;;;;;;;14.27;10.63;;;9.60;99.90;;;;;;5070791;28;20387;-75
2021/05/13 02:02:25;;;;;;;14.70;10.43;;;9.60;99.90;;;;;;5068681;28;20025;-75
2021/05/13 02:04:51;;;;;;;11.73;9.27;;;9.50;99.90;;;;;;5048945;28;20025;-75
2021/05/13 02:07:16;;;;;;;13.27;9.00;;;9.40;99.90;;;;;;5050663;28;20025;-74
2021/05/13 02:09:42;;;;;;;9.55;8.55;;;9.40;99.90;;;;;;5050438;28;20021;-75
2021/05/13 02:12:08;;;;;;;20.60;10.57;;;9.30;99.90;;;;;;5049436;28;20029;-77
2021/05/13 02:14:34;;;;;;;13.57;11.10;;;9.40;99.90;;;;;;5048809;28;20029;-76
2021/05/13 02:16:59;;;;;;;14.57;10.90;;;9.50;99.90;;;;;;5051329;28;20040;-75
2021/05/13 02:19:25;;;;;;;15.90;10.73;;;9.40;99.90;;;;;;5069522;28;20024;-75
2021/05/13 02:21:50;;;;;;;17.85;10.95;;;9.30;99.90;;;;;;5071864;28;20021;-74
2021/05/13 02:24:16;;;;;;;18.40;11.73;;;9.30;99.90;;;;;;5074015;28;20024;-75
2021/05/13 02:26:42;;;;;;;18.65;11.73;;;9.20;99.90;;;;;;5072748;28;20479;-74
2021/05/13 02:29:08;;;;;;;15.73;11.13;;;9.20;99.90;;;;;;5074636;28;20054;-74
2021/05/13 02:31:34;;;;;;;13.35;10.48;;;9.10;99.90;;;;;;5074515;28;20447;-74
2021/05/13 02:33:59;;;;;;;13.13;10.38;;;9.00;99.90;;;;;;5073925;28;20025;-75
2021/05/13 02:36:25;;;;;;;17.52;10.00;;;9.00;99.90;;;;;;5072855;28;20487;-75
2021/05/13 02:38:51;;;;;;;14.85;9.07;;;8.90;99.90;;;;;;5074345;28;20043;-75
2021/05/13 02:41:16;;;;;;;16.70;10.68;;;8.80;99.90;;;;;;5073942;28;20032;-75
2021/05/13 02:43:42;;;;;;;15.13;10.30;;;8.80;99.90;;;;;;5072156;28;20031;-74
2021/05/13 02:46:08;;;;;;;14.63;10.05;;;8.80;99.90;;;;;;5073246;28;20482;-74
2021/05/13 02:48:33;;;;;;;13.93;9.10;;;8.70;99.90;;;;;;5060392;28;20118;-75
2021/05/13 02:50:59;;;;;;;12.32;8.25;;;8.60;99.90;;;;;;5053760;28;20479;-75
2021/05/13 02:53:25;;;;;;;16.15;9.40;;;8.60;99.90;;;;;;5053078;28;20021;-76
2021/05/13 02:55:50;;;;;;;13.10;8.52;;;8.50;99.90;;;;;;5053344;28;20028;-74
2021/05/13 02:58:16;;;;;;;11.05;8.10;;;8.50;99.90;;;;;;5053600;28;20025;-74
2021/05/13 03:00:52;;;;;;;12.88;8.52;;;8.50;99.90;;;;;;5053775;28;20075;-75
2021/05/13 03:03:17;;;;;;;14.45;9.05;;;8.50;99.90;;;;;;5053051;28;20106;-75
2021/05/13 03:05:43;;;;;;;17.13;9.05;;;8.50;99.90;;;;;;5053556;28;20487;-77
2021/05/13 03:08:11;;;;;;;13.25;10.25;;;8.50;99.90;;;;;;5052166;28;20025;-72
2021/05/13 03:10:45;;;;;;;15.20;9.88;;;8.50;99.90;;;;;;5053351;28;20440;-74
2021/05/13 03:13:15;;;;;;;15.23;9.90;;;8.50;99.90;;;;;;5052703;28;20020;-74
2021/05/13 03:15:41;;;;;;;17.45;10.73;;;8.40;99.90;;;;;;5053040;28;20107;-74
2021/05/13 03:18:08;;;;;;;16.38;10.43;;;8.40;99.90;;;;;;5061491;28;20048;-75
2021/05/13 03:20:37;;;;;;;11.00;9.63;;;8.30;99.90;;;;;;5073110;28;20024;-75
2021/05/13 03:23:06;;;;;;;9.35;7.82;;;8.20;99.90;;;;;;5072639;28;20367;-75
2021/05/13 03:25:34;;;;;;;12.88;8.70;;;8.20;99.90;;;;;;5072546;28;20059;-75
2021/05/13 03:28:09;;;;;;;12.80;8.15;;;8.20;99.90;;;;;;5073057;28;20029;-75
2021/05/13 03:30:38;;;;;;;13.60;7.97;;;8.10;99.90;;;;;;5072892;28;20020;-74
2021/05/13 03:33:04;;;;;;;12.63;9.48;;;8.20;99.90;;;;;;5072071;28;20061;-75
2021/05/13 03:35:30;;;;;;;11.57;8.20;;;8.20;99.90;;;;;;5072924;28;20058;-76
2021/05/13 03:37:56;;;;;;;11.63;8.85;;;8.20;99.90;;;;;;5071267;28;20031;-76
2021/05/13 03:40:22;;;;;;;14.98;9.05;;;8.30;99.90;;;;;;5072504;28;20024;-74
2021/05/13 03:42:47;;;;;;;15.77;9.95;;;8.30;99.90;;;;;;5072304;28;20382;-75
2021/05/13 03:45:13;;;;;;;18.00;10.60;;;8.30;99.90;;;;;;5072578;28;20089;-75
2021/05/13 03:47:39;;;;;;;16.50;10.77;;;8.40;99.90;;;;;;5071116;28;20021;-75
2021/05/13 03:50:05;;;;;;;15.20;11.07;;;8.40;99.90;;;;;;5072795;28;20016;-75
2021/05/13 03:52:31;;;;;;;14.40;9.77;;;8.40;99.90;;;;;;5072665;28;20024;-75
2021/05/13 03:54:56;;;;;;;16.38;9.85;;;8.30;99.90;;;;;;5070644;28;20115;-77
2021/05/13 03:57:22;;;;;;;12.50;9.30;;;8.20;99.90;;;;;;5072656;28;20060;-74
2021/05/13 03:59:49;;;;;;;15.27;9.73;;;8.20;99.90;;;;;;5072390;28;20041;-74
2021/05/13 04:02:30;;;;;;;18.27;11.20;;;8.30;99.90;;;;;;5072521;28;20446;-76
2021/05/13 04:04:55;;;;;;;21.15;11.05;;;8.40;99.90;;;;;;5070491;28;20033;-74
2021/05/13 04:07:21;;;;;;;18.63;11.65;;;8.40;99.90;;;;;;5072216;28;20415;-75
2021/05/13 04:09:48;;;;;;;16.13;11.90;;;8.40;99.90;;;;;;5072408;28;20031;-75
2021/05/13 04:12:13;;;;;;;14.40;11.68;;;8.40;99.90;;;;;;5071912;28;20044;-73
2021/05/13 04:14:39;;;;;;;18.70;10.57;;;8.40;99.90;;;;;;5070726;28;20414;-74
2021/05/13 04:17:08;;;;;;;17.63;10.38;;;8.40;99.90;;;;;;5071914;28;20032;-75
2021/05/13 04:19:34;;;;;;;17.40;10.30;;;8.50;99.90;;;;;;5070692;28;20033;-74
2021/05/13 04:22:01;;;;;;;15.63;11.20;;;8.50;99.90;;;;;;5072018;28;20486;-74
2021/05/13 04:24:26;;;;;;;21.13;10.98;;;8.50;99.90;;;;;;5071379;28;20066;-74
2021/05/13 04:26:52;;;;;;;16.00;10.95;;;8.60;99.90;;;;;;5071573;28;20021;-74
2021/05/13 04:29:18;;;;;;;14.60;10.75;;;8.70;99.90;;;;;;5071997;28;20036;-74
2021/05/13 04:31:44;;;;;;;14.15;11.18;;;8.70;99.90;;;;;;5071618;28;20498;-74
2021/05/13 04:34:09;;;;;;;13.35;9.40;;;8.60;99.90;;;;;;5071358;28;20020;-73
2021/05/13 04:36:35;;;;;;;12.07;9.05;;;8.60;99.90;;;;;;5071530;28;20556;-73
2021/05/13 04:39:01;;;;;;;13.20;8.57;;;8.50;99.90;;;;;;5071599;28;20040;-74
2021/05/13 04:41:30;;;;;;;12.02;8.88;;;8.60;99.90;;;;;;5071444;28;20066;-74
2021/05/13 04:43:56;;;;;;;9.77;7.22;;;8.70;99.90;;;;;;5070191;28;20039;-76
2021/05/13 04:46:24;;;;;;;12.13;8.48;;;9.00;99.90;;;;;;5070187;28;20161;-74
2021/05/13 04:51:25;;;;;;;10.23;8.60;;;9.30;99.90;;;;;;5071976;28;20462;-73
2021/05/13 04:53:51;;;;;;;13.82;8.38;;;9.30;99.90;;;;;;5070475;28;20029;-75
2021/05/13 04:56:19;;;;;;;13.00;8.10;;;9.20;99.90;;;;;;5070926;28;20020;-73
2021/05/13 04:58:45;;;;;;;11.52;7.53;;;9.20;99.90;;;;;;5070613;28;20126;-74
2021/05/13 05:01:10;;;;;;;7.93;7.07;;;9.30;99.90;;;;;;5071995;28;20177;-74
2021/05/13 05:03:36;;;;;;;12.23;8.25;;;9.10;99.90;;;;;;5071413;28;20016;-75
2021/05/13 05:06:02;;;;;;;13.38;7.85;;;9.20;99.90;;;;;;5070321;28;20017;-73
2021/05/13 05:08:28;;;;;;;9.82;7.30;;;9.10;99.90;;;;;;5074653;28;20032;-76
2021/05/13 05:10:53;;;;;;;9.70;6.70;;;9.00;99.90;;;;;;5073983;28;20143;-75
2021/05/13 05:13:19;;;;;;;10.98;6.78;;;8.90;99.90;;;;;;5071192;28;20025;-76
2021/05/13 05:15:45;;;;;;;7.60;6.80;;;8.80;99.90;;;;;;5058671;28;20032;-74
2021/05/13 05:18:21;;;;;;;10.35;7.32;;;8.90;99.90;;;;;;5059714;28;20059;-75
2021/05/13 05:20:48;;;;;;;8.65;7.22;;;9.00;99.90;;;;;;5049842;28;20043;-73
2021/05/13 05:23:14;;;;;;;10.68;7.70;;;9.00;99.90;;;;;;5050510;28;20017;-74
2021/05/13 05:25:40;;;;;;;8.40;7.13;;;9.00;99.90;;;;;;5049737;28;20028;-76
2021/05/13 05:28:07;;;;;;;9.20;6.97;;;9.00;99.90;;;;;;5050458;28;20499;-75
2021/05/13 05:30:33;;;;;;;10.18;6.57;;;9.10;99.90;;;;;;5050859;28;20043;-74
2021/05/13 05:33:04;;;;;;;10.13;6.60;;;9.00;99.90;;;;;;5049929;28;20032;-76
2021/05/13 05:35:30;;;;;;;7.93;6.00;;;9.10;99.90;;;;;;5048976;28;20025;-74
2021/05/13 05:37:56;;;;;;;7.00;6.30;;;9.20;99.90;;;;;;5049731;28;20029;-76
2021/05/13 05:40:23;;;;;;;9.52;6.47;;;9.10;99.90;;;;;;5051247;28;20029;-75
2021/05/13 05:42:49;;;;;;;7.40;6.55;;;9.10;99.90;;;;;;5050848;28;20116;-74
2021/05/13 05:45:16;;;;;;;11.60;6.95;;;9.10;99.90;;;;;;5050429;28;20021;-75
2021/05/13 05:47:44;;;;;;;7.65;6.10;;;9.30;99.90;;;;;;5049359;28;20506;-76
2021/05/13 05:50:10;;;;;;;9.48;6.55;;;9.50;99.90;;;;;;5050789;28;20051;-74
2021/05/13 05:52:36;;;;;;;10.05;6.75;;;9.50;99.90;;;;;;5050126;28;20029;-77
2021/05/13 05:55:04;;;;;;;9.68;6.30;;;9.60;99.90;;;;;;5050559;28;20452;-77
2021/05/13 05:57:30;;;;;;;10.80;6.00;;;9.60;99.90;;;;;;5053717;28;20031;-74
2021/05/13 05:59:57;;;;;;;7.03;6.18;;;9.70;99.90;;;;;;5053647;28;20112;-74
2021/05/13 06:02:23;;;;;;;8.75;6.18;;;9.70;99.90;;;;;;5054200;28;20371;-76
2021/05/13 06:04:51;;;;;;;9.00;6.00;;;9.80;99.90;;;;;;5053579;28;20029;-74
2021/05/13 06:07:17;;;;;;;11.85;5.50;;;9.80;99.90;;;;;;5053830;28;20013;-73
2021/05/13 06:09:43;;;;;;;7.30;5.57;;;9.90;99.90;;;;;;5053746;28;20033;-75
2021/05/13 06:12:08;;;;;;;7.78;5.65;;;10.00;99.90;;;;;;5052089;28;20037;-73
2021/05/13 06:14:34;;;;;;;5.95;5.07;;;10.00;99.90;;;;;;5053951;28;20040;-75
2021/05/13 06:17:00;;;;;;;9.13;5.68;;;10.20;99.90;;;;;;5053805;28;20017;-75
2021/05/13 06:19:26;;;;;;;5.85;5.05;;;10.20;99.90;;;;;;5067542;28;20033;-74
2021/05/13 06:21:52;;;;;;;4.80;4.28;;;10.20;99.90;;;;;;5067541;28;20032;-75
2021/05/13 06:24:18;;;;;;;6.68;4.50;;;10.20;99.90;;;;;;5057184;28;20099;-75
2021/05/13 06:27:00;;;;;;;5.00;4.50;;;10.40;99.90;;;;;;5054672;28;20021;-74
2021/05/13 06:29:30;;;;;;;10.07;3.75;;;10.40;99.90;;;;;;5053712;28;20037;-76
2021/05/13 06:31:58;;;;;;;7.63;4.82;;;10.50;99.90;;;;;;5053933;28;20491;-76
2021/05/13 06:34:26;;;;;;;7.75;4.30;;;10.50;99.90;;;;;;5054026;28;20029;-76
2021/05/13 06:36:53;;;;;;;5.72;3.70;;;10.70;99.90;;;;;;5053151;28;20021;-77
2021/05/13 06:39:19;;;;;;;6.38;4.78;;;10.80;99.90;;;;;;5052519;28;20075;-77
2021/05/13 06:41:44;;;;;;;8.73;4.30;;;10.90;99.90;;;;;;5059659;28;20051;-75
2021/05/13 06:44:10;;;;;;;6.22;4.13;;;11.00;99.90;;;;;;5053547;28;20033;-76
2021/05/13 06:46:36;;;;;;;5.95;3.72;;;11.20;99.90;;;;;;5058215;28;20035;-74
2021/05/13 06:49:02;;;;;;;5.40;3.95;;;11.10;99.90;;;;;;5058436;28;20024;-76
2021/05/13 06:51:28;;;;;;;3.38;3.08;;;11.20;99.90;;;;;;5073469;28;20088;-76
2021/05/13 06:53:54;;;;;;;4.53;3.67;;;11.40;99.90;;;;;;5077347;28;20111;-74
2021/05/13 06:56:21;;;;;;;6.72;3.30;;;11.60;99.90;;;;;;5073607;28;20147;-75
2021/05/13 06:58:47;;;;;;;6.00;3.03;;;11.70;99.90;;;;;;5086662;28;20029;-74
2021/05/13 07:01:13;;;;;;;6.13;3.40;;;11.70;99.90;;;;;;5087839;28;20027;-73
2021/05/13 07:03:39;;;;;;;5.82;3.35;;;11.80;99.90;;;;;;5077955;28;20016;-77
2021/05/13 07:06:05;;;;;;;4.53;3.33;;;12.10;99.90;;;;;;5077536;28;20020;-77
2021/05/13 07:08:31;;;;;;;3.40;2.83;;;12.60;99.90;;;;;;5078633;28;20154;-77
2021/05/13 07:10:58;;;;;;;4.10;2.72;;;12.70;99.90;;;;;;5075930;28;20048;-77
2021/05/13 07:13:24;;;;;;;4.72;2.90;;;12.70;99.90;;;;;;5073816;28;20100;-77
2021/05/13 07:15:49;;;;;;;5.13;3.33;;;12.90;99.90;;;;;;5078752;28;20044;-76
2021/05/13 07:18:16;;;;;;;3.92;2.75;;;13.00;99.90;;;;;;5061524;28;20021;-72
2021/05/13 07:20:42;;;;;;;5.05;2.95;;;13.00;99.90;;;;;;5055581;28;20025;-74
2021/05/13 07:23:09;;;;;;;4.03;2.80;;;13.10;99.90;;;;;;5070719;28;20060;-74
2021/05/13 07:25:35;;;;;;;2.75;2.55;;;13.10;99.90;;;;;;5074775;28;20021;-71
2021/05/13 07:28:02;;;;;;;3.25;2.90;;;13.20;99.90;;;;;;5071731;28;20111;-76
2021/05/13 07:30:28;;;;;;;3.20;2.88;;;13.20;99.90;;;;;;5070049;28;20040;-75
2021/05/13 07:32:54;;;;;;;4.57;3.13;;;13.30;99.90;;;;;;5073810;28;20020;-73
2021/05/13 07:35:20;;;;;;;11.18;2.65;;;13.50;99.90;;;;;;5071610;28;20024;-74
2021/05/13 07:37:46;;;;;;;4.45;2.45;;;13.80;99.90;;;;;;5071336;28;20085;-75
2021/05/13 07:40:14;;;;;;;5.85;3.13;;;13.80;99.90;;;;;;5072341;28;20036;-75
2021/05/13 07:42:40;;;;;;;4.78;2.22;;;13.90;99.90;;;;;;5062893;28;20029;-75
2021/05/13 07:45:07;;;;;;;4.57;2.40;;;14.00;99.90;;;;;;5057322;28;20092;-73
2021/05/13 07:47:39;;;;;;;2.97;2.55;;;13.90;99.90;;;;;;5055833;28;20096;-75
2021/05/13 07:50:21;;;;;;;4.88;2.85;;;13.80;99.90;;;;;;5051502;28;20036;-75
2021/05/13 07:52:48;;;;;;;4.63;2.47;;;14.10;99.90;;;;;;5055137;28;20029;-76
2021/05/13 07:55:14;;;;;;;5.60;2.60;;;14.20;99.90;;;;;;5053783;28;20109;-76
2021/05/13 07:57:40;;;;;;;4.18;1.83;;;14.40;99.90;;;;;;5052997;28;20029;-76
2021/05/13 08:00:07;;;;;;;2.55;1.88;;;14.60;99.90;;;;;;5056287;28;20025;-76
2021/05/13 08:02:33;;;;;;;4.13;2.25;;;14.90;99.90;;;;;;5055285;28;20021;-73
2021/05/13 08:04:59;;;;;;;4.45;1.65;;;15.20;99.90;;;;;;5051099;28;20029;-76
2021/05/13 08:07:25;;;;;;;4.97;2.03;;;15.10;99.90;;;;;;5052987;28;20033;-75
2021/05/13 08:09:51;;;;;;;1.27;1.00;;;15.00;99.90;;;;;;5055627;28;20025;-76
2021/05/13 08:12:17;;;;;;;5.82;2.50;;;14.90;99.90;;;;;;5071410;28;20048;-76
2021/05/13 08:14:44;;;;;;;2.65;1.90;;;14.90;99.90;;;;;;5073998;28;20031;-75
2021/05/13 08:17:10;;;;;;;3.50;2.05;;;15.40;99.90;;;;;;5072948;28;20043;-75
2021/05/13 08:19:35;;;;;;;2.38;1.70;;;15.60;99.90;;;;;;5052644;28;20471;-74
2021/05/13 08:22:01;;;;;;;6.07;2.03;;;15.30;99.90;;;;;;5050360;28;20032;-76
2021/05/13 08:24:27;;;;;;;5.70;2.33;;;15.30;99.90;;;;;;5049970;28;20021;-75
2021/05/13 08:26:54;;;;;;;3.22;1.63;;;15.60;99.90;;;;;;5050019;28;20021;-75
2021/05/13 08:29:20;;;;;;;5.22;1.20;;;15.70;99.90;;;;;;5056794;28;20025;-75
2021/05/13 08:31:46;;;;;;;4.55;0.90;;;16.70;99.90;;;;;;5060559;28;20044;-76
2021/05/13 08:34:11;;;;;;;1.30;0.77;;;17.00;99.90;;;;;;5054923;28;20115;-76
2021/05/13 08:36:37;;;;;;;3.65;0.80;;;16.40;99.90;;;;;;5060493;28;20063;-75
2021/05/13 08:39:04;;;;;;;2.70;1.20;;;16.40;99.90;;;;;;5056232;28;20028;-75
2021/05/13 08:41:29;;;;;;;3.15;1.02;;;16.90;99.90;;;;;;5051607;28;20021;-76
2021/05/13 08:43:55;;;;;;;2.45;1.10;;;17.30;99.90;;;;;;5049525;28;20028;-77
2021/05/13 08:46:21;;;;;;;1.80;1.23;;;17.80;99.90;;;;;;5055612;28;20017;-76
2021/05/13 08:48:48;;;;;;;4.75;1.27;;;17.60;99.90;;;;;;5054476;28;20471;-75
2021/05/13 08:51:14;;;;;;;2.30;1.10;;;17.60;99.90;;;;;;5050185;28;20021;-76
2021/05/13 08:54:06;;;;;;;1.38;0.82;;;18.00;99.90;;;;;;5057674;28;20013;-77
2021/05/13 08:56:32;;;;;;;2.72;0.95;;;18.00;99.90;;;;;;5069572;28;20129;-75
2021/05/13 08:59:05;;;;;;;0.90;0.80;;;18.60;98.80;;;;;;5068989;28;20074;-75
2021/05/13 09:01:33;;;;;;;1.08;0.60;;;19.30;96.60;;;;;;5072649;28;20020;-75
2021/05/13 09:04:01;;;;;;;2.42;1.42;;;18.20;98.50;;;;;;5068385;28;20029;-75
2021/05/13 09:06:50;;;;;;;1.42;1.00;;;17.90;97.70;;;;;;5070940;28;20016;-75
2021/05/13 09:09:18;;;;;;;3.03;0.95;;;18.50;98.50;;;;;;5070294;28;20792;-75
2021/05/13 09:11:57;;;;;;;2.80;0.98;;;19.40;95.60;;;;;;5074107;28;20021;-77
2021/05/13 09:14:25;;;;;;;2.28;0.75;;;19.00;94.40;;;;;;5073926;28;20135;-75
2021/05/13 09:16:51;;;;;;;3.78;1.02;;;19.90;91.20;;;;;;5074574;28;20021;-74
2021/05/13 09:19:25;;;;;;;2.08;0.70;;;18.70;92.90;;;;;;5053890;28;20025;-75
2021/05/13 09:21:55;;;;;;;4.32;1.10;;;19.30;91.30;;;;;;5050566;28;20025;-76
2021/05/13 09:24:48;;;;;;;2.40;0.90;;;20.90;92.70;;;;;;5048769;28;20063;-74
2021/05/13 09:27:21;;;;;;;3.60;1.00;;;21.00;91.70;;;;;;5049108;28;20031;-77
2021/05/13 09:30:00;;;;;;;1.30;0.65;;;21.50;84.50;;;;;;5049536;28;20075;-75
2021/05/13 09:32:26;;;;;;;2.20;0.85;;;21.30;85.70;;;;;;5048570;28;20029;-74
2021/05/13 09:34:52;;;;;;;1.48;0.65;;;22.90;84.70;;;;;;5048693;28;20059;-72
2021/05/13 09:37:18;;;;;;;1.77;0.98;;;21.90;82.70;;;;;;5049311;28;20107;-72
2021/05/13 09:39:49;;;;;;;2.40;0.70;;;21.10;83.80;;;;;;5049713;28;20429;-75
2021/05/13 09:42:19;;;;;;;2.15;0.77;;;21.00;84.60;;;;;;5049598;28;20083;-75
2021/05/13 09:44:46;;;;;;;2.42;0.93;;;19.30;84.70;;;;;;5048716;28;20052;-75
2021/05/13 09:47:13;;;;;;;2.72;0.98;;;18.30;85.50;;;;;;5049291;28;20067;-73
2021/05/13 09:50:02;;;;;;;1.42;0.73;;;17.80;85.70;;;;;;5049688;28;20033;-73
2021/05/13 09:52:45;;;;;;;3.97;0.90;;;17.90;91.60;;;;;;5048854;28;20426;-75
2021/05/13 09:55:15;;;;;;;;;;;17.90;91.00;;;;;;5052759;28;20735;-75
2021/05/13 09:57:48;;;;;;;1.90;0.77;;;17.80;91.20;;;;;;5052351;28;19909;-75
2021/05/13 10:00:29;;;;;;;1.50;0.90;;;17.30;91.10;;;;;;5053412;28;20545;-75
2021/05/13 10:02:55;;;;;;;6.85;0.93;;;18.10;92.70;;;;;;5052061;28;20021;-75
2021/05/13 10:05:21;;;;;;;2.75;0.80;;;19.10;90.60;;;;;;5058727;28;20124;-70
2021/05/13 10:07:46;;;;;;;0.77;0.57;;;20.30;90.00;;;;;;5062019;28;20029;-75
2021/05/13 10:10:12;;;;;;;0.98;0.73;;;20.00;88.10;;;;;;5060242;28;20021;-75
2021/05/13 10:12:38;;;;;;;2.75;0.80;;;20.30;88.40;;;;;;5054948;28;20585;-76
2021/05/13 10:15:04;;;;;;;2.78;1.55;;;20.30;89.00;;;;;;5052919;28;20345;-74
2021/05/13 10:17:31;;;;;;;3.42;0.65;;;19.40;91.40;;;;;;5053587;28;20032;-74
2021/05/13 10:19:58;;;;;;;3.25;0.98;;;19.00;94.10;;;;;;5064644;28;20021;-74
2021/05/13 10:22:24;;;;;;;3.53;0.80;;;18.00;95.30;;;;;;5068077;28;20021;-73
2021/05/13 10:25:23;;;;;;;5.07;0.90;;;17.40;97.50;;;;;;5066907;28;20013;-75
2021/05/13 10:27:50;;;;;;;4.25;0.90;;;16.90;99.20;;;;;;5051211;28;20028;-74
2021/05/13 10:30:16;;;;;;;0.82;0.55;;;16.70;99.90;;;;;;5051057;28;20771;-74
2021/05/13 10:32:42;;;;;;;1.88;0.90;;;16.70;99.30;;;;;;5049783;28;20025;-73
2021/05/13 10:35:09;;;;;;;1.58;0.93;;;16.40;99.90;;;;;;5049110;28;20040;-73
2021/05/13 10:37:39;;;;;;;3.10;1.00;;;16.10;99.90;;;;;;5050506;28;20033;-72
2021/05/13 10:40:21;;;;;;;2.30;1.15;;;16.10;99.90;;;;;;5052762;28;20384;-73
2021/05/13 10:43:00;;;;;;;4.53;0.70;;;15.90;99.90;;;;;;5052660;28;20108;-73
2021/05/13 10:45:26;;;;;;;2.42;0.60;;;15.90;99.90;;;;;;5054883;28;20025;-73
2021/05/13 10:48:11;;;;;;;2.55;0.80;;;15.80;99.90;;;;;;5056168;28;20036;-72
2021/05/13 10:51:03;;;;;;;2.40;0.60;;;15.80;99.90;;;;;;5054871;28;20169;-73
2021/05/13 10:53:34;;;;;;;3.63;0.80;;;15.20;99.90;;;;;;5055765;28;20032;-73
2021/05/13 10:56:25;;;;;;;1.30;0.73;;;15.00;99.90;;;;;;5056456;28;20065;-74
2021/05/13 10:59:09;;;;;;;1.25;0.88;;;15.00;99.90;;;;;;5058082;28;20029;-74
2021/05/13 11:01:46;;;;;;;2.92;0.50;;;14.90;99.90;;;;;;5060800;28;20486;-74
2021/05/13 11:04:21;;;;;;;1.38;0.50;;;15.00;99.90;;;;;;5055756;28;20021;-73
2021/05/13 11:06:48;;;;;;;0.73;0.30;;;14.90;99.90;;;;;;5059447;28;20080;-74
2021/05/13 11:09:43;;;;;;;0.55;0.40;;;14.60;99.90;;;;;;5058573;28;20036;-73
2021/05/13 11:12:19;;;;;;;1.85;0.52;;;14.40;99.90;;;;;;5054848;28;20029;-72
2021/05/13 11:15:06;;;;;;;2.75;0.50;;;14.40;99.90;;;;;;5051509;28;20092;-72
2021/05/13 11:17:59;;;;;;;0.55;0.40;;;13.90;99.90;;;;;;5056989;28;20033;-73
2021/05/13 11:20:44;;;;;;;0.95;0.43;;;14.10;99.90;;;;;;5056746;28;20483;-73
2021/05/13 11:23:21;;;;;;;1.45;0.70;;;14.20;99.90;;;;;;5056791;28;20818;-74
2021/05/13 11:26:10;;;;;;;1.75;0.40;;;14.20;99.90;;;;;;5053241;28;20851;-76
2021/05/13 11:28:46;;;;;;;2.85;0.68;;;14.30;99.90;;;;;;5052398;28;20090;-72
2021/05/13 11:31:22;;;;;;;0.30;0.30;;;14.30;99.90;;;;;;5055586;28;20048;-74
2021/05/13 11:33:56;;;;;;;1.85;0.50;;;14.50;99.90;;;;;;5055634;28;20028;-76
2021/05/13 11:36:37;;;;;;;0.52;0.38;;;14.60;99.90;;;;;;5053392;28;20051;-73
2021/05/13 11:39:11;;;;;;;1.85;0.75;;;15.20;99.90;;;;;;5053516;28;20368;-73
2021/05/13 11:41:37;;;;;;;0.40;0.40;;;15.50;99.90;;;;;;5056010;28;20017;-75
2021/05/13 11:44:03;;;;;;;0.80;0.38;;;15.70;99.90;;;;;;5052759;28;20096;-73
2021/05/13 11:46:29;;;;;;;1.88;1.30;;;16.00;99.90;;;;;;5049897;28;20659;-73
2021/05/13 11:48:56;;;;;;;9.88;5.28;;;16.10;99.90;;;;;;5051906;28;20112;-75
2021/05/13 11:51:29;;;;;;;0.95;0.60;;;16.80;99.90;;;;;;5050758;28;20352;-74
2021/05/13 11:54:00;;;;;;;3.33;2.20;;;17.10;99.90;;;;;;5050388;28;20021;-74
2021/05/13 11:56:31;;;;;;;1.33;0.77;;;17.10;99.90;;;;;;5051319;28;20071;-73
2021/05/13 11:58:58;;;;;;;2.13;1.13;;;17.30;99.90;;;;;;5051791;28;20021;-75
2021/05/13 12:01:40;;;;;;;0.68;0.60;;;17.60;99.90;;;;;;5053595;28;20021;-74
2021/05/13 12:04:24;;;;;;;2.83;1.00;;;17.30;99.90;;;;;;5052746;28;20540;-76
2021/05/13 12:07:00;;;;;;;1.20;0.40;;;17.60;99.90;;;;;;5056340;28;20021;-73
2021/05/13 12:09:27;;;;;;;1.48;0.60;;;17.20;99.90;;;;;;5056525;28;20129;-75
2021/05/13 12:11:54;;;;;;;1.23;0.82;;;17.10;99.90;;;;;;5057758;28;20025;-74
2021/05/13 12:14:24;;;;;;;1.73;0.43;;;16.10;99.90;;;;;;5057815;28;20025;-73
2021/05/13 12:16:58;;;;;;;0.50;0.45;;;15.80;99.90;;;;;;5058604;28;20491;-74
2021/05/13 12:19:25;;;;;;;1.38;0.82;;;15.70;99.90;;;;;;5054813;28;20557;-73
2021/05/13 12:22:03;;;;;;;1.00;0.73;;;15.80;99.90;;;;;;5057371;28;20021;-75
2021/05/13 12:24:31;;;;;;;1.45;0.55;;;15.60;99.90;;;;;;5051971;28;20020;-74
2021/05/13 12:26:57;;;;;;;1.20;0.65;;;15.60;99.90;;;;;;5057183;28;20025;-74
2021/05/13 12:29:24;;;;;;;0.88;0.73;;;15.50;99.90;;;;;;5055695;28;20505;-72
2021/05/13 12:31:50;;;;;;;1.67;0.70;;;15.50;99.90;;;;;;5058269;28;20033;-76
2021/05/13 12:34:42;;;;;;;3.50;0.60;;;15.30;99.90;;;;;;5057948;28;20096;-75
2021/05/13 12:37:09;;;;;;;1.92;0.75;;;15.20;99.90;;;;;;5058833;28;20028;-75
2021/05/13 12:39:37;;;;;;;1.15;0.98;;;15.40;99.90;;;;;;5054637;28;20093;-75
2021/05/13 12:42:04;;;;;;;2.20;0.65;;;15.40;99.90;;;;;;5052943;28;20383;-75
2021/05/13 12:44:35;;;;;;;1.60;0.90;;;15.00;99.90;;;;;;5053363;28;20021;-74
2021/05/13 12:47:02;;;;;;;3.35;0.80;;;14.90;99.90;;;;;;5059079;28;20025;-75
2021/05/13 12:49:30;;;;;;;1.92;0.70;;;14.70;99.90;;;;;;5053920;28;20051;-73
2021/05/13 12:52:10;;;;;;;1.30;0.85;;;14.80;99.90;;;;;;5053185;28;20483;-73
2021/05/13 12:54:41;;;;;;;0.98;0.50;;;14.60;99.90;;;;;;5055734;28;20078;-76
2021/05/13 12:57:17;;;;;;;0.65;0.40;;;14.80;99.90;;;;;;5058633;28;20108;-74
2021/05/13 12:59:52;;;;;;;1.27;0.73;;;14.70;99.90;;;;;;5058458;28;20060;-75
2021/05/13 13:02:24;;;;;;;1.17;0.70;;;14.50;99.90;;;;;;5058355;28;20040;-74